sensor_id;sensor_type;location;lat;lon;timestamp;temperature;humidity
27667;DHT22;15074;50.940;5.282;2022-07-31T00:01:48;20.00;99.90
27667;DHT22;15074;50.940;5.282;2022-07-31T00:04:14;20.00;99.90
27667;DHT22;15074;50.940;5.282;2022-07-31T00:06:40;20.10;99.90
27667;DHT22;15074;50.940;5.282;2022-07-31T00:09:07;20.20;99.90
27667;DHT22;15074;50.940;5.282;2022-07-31T00:11:33;20.30;99.90
27667;DHT22;15074;50.940;5.282;2022-07-31T00:13:59;20.30;99.90
27667;DHT22;15074;50.940;5.282;2022-07-31T00:16:25;20.20;99.90
27667;DHT22;15074;50.940;5.282;2022-07-31T00:18:50;20.10;99.90
27667;DHT22;15074;50.940;5.282;2022-07-31T00:21:16;20.10;99.90
27667;DHT22;15074;50.940;5.282;2022-07-31T00:23:43;20.20;99.90
27667;DHT22;15074;50.940;5.282;2022-07-31T00:26:08;20.10;99.90
27667;DHT22;15074;50.940;5.282;2022-07-31T00:28:35;20.10;99.90
27667;DHT22;15074;50.940;5.282;2022-07-31T00:31:01;20.10;99.90
27667;DHT22;15074;50.940;5.282;2022-07-31T00:33:27;20.00;99.90
27667;DHT22;15074;50.940;5.282;2022-07-31T00:35:53;20.10;99.90
27667;DHT22;15074;50.940;5.282;2022-07-31T00:38:18;20.20;99.90
27667;DHT22;15074;50.940;5.282;2022-07-31T00:40:48;20.20;99.90
27667;DHT22;15074;50.940;5.282;2022-07-31T00:43:15;20.30;99.90
27667;DHT22;15074;50.940;5.282;2022-07-31T00:45:40;20.10;99.90
27667;DHT22;15074;50.940;5.282;2022-07-31T00:48:06;20.10;99.90
27667;DHT22;15074;50.940;5.282;2022-07-31T00:50:32;20.10;99.90
27667;DHT22;15074;50.940;5.282;2022-07-31T00:52:57;20.00;99.90
27667;DHT22;15074;50.940;5.282;2022-07-31T00:55:23;20.10;99.90
27667;DHT22;15074;50.940;5.282;2022-07-31T00:57:50;20.20;99.90
27667;DHT22;15074;50.940;5.282;2022-07-31T01:00:15;20.10;99.90
27667;DHT22;15074;50.940;5.282;2022-07-31T01:02:41;19.90;99.90
27667;DHT22;15074;50.940;5.282;2022-07-31T01:05:07;19.90;99.90
27667;DHT22;15074;50.940;5.282;2022-07-31T01:07:33;19.90;99.90
27667;DHT22;15074;50.940;5.282;2022-07-31T01:10:03;20.00;99.90
27667;DHT22;15074;50.940;5.282;2022-07-31T01:12:38;19.80;99.90
27667;DHT22;15074;50.940;5.282;2022-07-31T01:15:07;19.90;99.90
27667;DHT22;15074;50.940;5.282;2022-07-31T01:17:36;19.80;99.90
27667;DHT22;15074;50.940;5.282;2022-07-31T01:20:03;19.70;99.90
27667;DHT22;15074;50.940;5.282;2022-07-31T01:22:56;19.60;99.90
27667;DHT22;15074;50.940;5.282;2022-07-31T01:28:56;19.20;99.90
27667;DHT22;15074;50.940;5.282;2022-07-31T01:31:30;19.00;99.90
27667;DHT22;15074;50.940;5.282;2022-07-31T01:34:13;18.90;99.90
27667;DHT22;15074;50.940;5.282;2022-07-31T01:36:43;18.90;99.90
27667;DHT22;15074;50.940;5.282;2022-07-31T01:39:11;18.80;99.90
27667;DHT22;15074;50.940;5.282;2022-07-31T01:41:40;18.70;99.90
27667;DHT22;15074;50.940;5.282;2022-07-31T01:44:10;18.70;99.90
27667;DHT22;15074;50.940;5.282;2022-07-31T01:46:38;18.80;99.90
27667;DHT22;15074;50.940;5.282;2022-07-31T01:49:05;19.00;99.90
27667;DHT22;15074;50.940;5.282;2022-07-31T01:51:31;19.00;99.90
27667;DHT22;15074;50.940;5.282;2022-07-31T01:53:59;19.10;99.90
27667;DHT22;15074;50.940;5.282;2022-07-31T01:56:25;19.10;99.90
27667;DHT22;15074;50.940;5.282;2022-07-31T01:58:53;19.00;99.90
27667;DHT22;15074;50.940;5.282;2022-07-31T02:01:20;19.10;99.90
27667;DHT22;15074;50.940;5.282;2022-07-31T02:03:47;19.10;99.90
27667;DHT22;15074;50.940;5.282;2022-07-31T02:06:16;19.10;99.90
27667;DHT22;15074;50.940;5.282;2022-07-31T02:08:46;19.10;99.90
27667;DHT22;15074;50.940;5.282;2022-07-31T02:11:18;19.00;99.90
27667;DHT22;15074;50.940;5.282;2022-07-31T02:13:45;19.00;99.90
27667;DHT22;15074;50.940;5.282;2022-07-31T02:16:13;19.00;99.90
27667;DHT22;15074;50.940;5.282;2022-07-31T02:18:39;19.00;99.90
27667;DHT22;15074;50.940;5.282;2022-07-31T02:21:06;18.90;99.90
27667;DHT22;15074;50.940;5.282;2022-07-31T02:23:32;18.90;99.90
27667;DHT22;15074;50.940;5.282;2022-07-31T02:25:59;18.90;99.90
27667;DHT22;15074;50.940;5.282;2022-07-31T02:28:26;18.80;99.90
27667;DHT22;15074;50.940;5.282;2022-07-31T02:30:52;18.90;99.90
27667;DHT22;15074;50.940;5.282;2022-07-31T02:33:20;18.90;99.90
27667;DHT22;15074;50.940;5.282;2022-07-31T02:35:50;18.90;99.90
27667;DHT22;15074;50.940;5.282;2022-07-31T02:38:20;18.90;99.90
27667;DHT22;15074;50.940;5.282;2022-07-31T02:40:47;19.00;99.90
27667;DHT22;15074;50.940;5.282;2022-07-31T02:43:14;18.90;99.90
27667;DHT22;15074;50.940;5.282;2022-07-31T02:45:41;18.90;99.90
27667;DHT22;15074;50.940;5.282;2022-07-31T02:48:07;18.80;99.90
27667;DHT22;15074;50.940;5.282;2022-07-31T02:50:34;18.80;99.90
27667;DHT22;15074;50.940;5.282;2022-07-31T02:53:00;18.80;99.90
27667;DHT22;15074;50.940;5.282;2022-07-31T02:55:26;18.80;99.90
27667;DHT22;15074;50.940;5.282;2022-07-31T02:57:52;18.80;99.90
27667;DHT22;15074;50.940;5.282;2022-07-31T03:00:18;18.80;99.90
27667;DHT22;15074;50.940;5.282;2022-07-31T03:02:49;18.80;99.90
27667;DHT22;15074;50.940;5.282;2022-07-31T03:05:15;18.80;99.90
27667;DHT22;15074;50.940;5.282;2022-07-31T03:07:41;18.80;99.90
27667;DHT22;15074;50.940;5.282;2022-07-31T03:10:07;18.90;99.90
27667;DHT22;15074;50.940;5.282;2022-07-31T03:12:36;19.10;99.90
27667;DHT22;15074;50.940;5.282;2022-07-31T03:15:08;19.10;99.90
27667;DHT22;15074;50.940;5.282;2022-07-31T03:17:36;19.10;99.90
27667;DHT22;15074;50.940;5.282;2022-07-31T03:20:04;19.10;99.90
27667;DHT22;15074;50.940;5.282;2022-07-31T03:22:30;18.90;99.90
27667;DHT22;15074;50.940;5.282;2022-07-31T03:24:56;18.70;99.90
27667;DHT22;15074;50.940;5.282;2022-07-31T03:27:22;18.60;99.90
27667;DHT22;15074;50.940;5.282;2022-07-31T03:29:48;18.60;99.90
27667;DHT22;15074;50.940;5.282;2022-07-31T03:32:13;18.70;99.90
27667;DHT22;15074;50.940;5.282;2022-07-31T03:34:39;18.60;99.90
27667;DHT22;15074;50.940;5.282;2022-07-31T03:37:05;18.60;99.90
27667;DHT22;15074;50.940;5.282;2022-07-31T03:39:30;18.60;99.90
27667;DHT22;15074;50.940;5.282;2022-07-31T03:41:56;18.60;99.90
27667;DHT22;15074;50.940;5.282;2022-07-31T03:44:23;18.60;99.90
27667;DHT22;15074;50.940;5.282;2022-07-31T03:46:50;18.50;99.90
27667;DHT22;15074;50.940;5.282;2022-07-31T03:49:16;18.50;99.90
27667;DHT22;15074;50.940;5.282;2022-07-31T03:51:42;18.40;99.90
27667;DHT22;15074;50.940;5.282;2022-07-31T03:54:08;18.50;99.90
27667;DHT22;15074;50.940;5.282;2022-07-31T03:56:34;18.50;99.90
27667;DHT22;15074;50.940;5.282;2022-07-31T03:59:02;18.50;99.90
27667;DHT22;15074;50.940;5.282;2022-07-31T04:01:29;18.50;99.90
27667;DHT22;15074;50.940;5.282;2022-07-31T04:03:58;18.40;99.90
27667;DHT22;15074;50.940;5.282;2022-07-31T04:06:24;18.20;99.90
27667;DHT22;15074;50.940;5.282;2022-07-31T04:08:49;18.20;99.90
27667;DHT22;15074;50.940;5.282;2022-07-31T04:11:15;18.30;99.90
27667;DHT22;15074;50.940;5.282;2022-07-31T04:13:41;18.40;99.90
27667;DHT22;15074;50.940;5.282;2022-07-31T04:16:07;18.40;99.90
27667;DHT22;15074;50.940;5.282;2022-07-31T04:18:33;18.30;99.90
27667;DHT22;15074;50.940;5.282;2022-07-31T04:20:59;18.10;99.90
27667;DHT22;15074;50.940;5.282;2022-07-31T04:23:24;18.00;99.90
27667;DHT22;15074;50.940;5.282;2022-07-31T04:25:50;18.00;99.90
27667;DHT22;15074;50.940;5.282;2022-07-31T04:28:16;18.00;99.90
27667;DHT22;15074;50.940;5.282;2022-07-31T04:30:42;18.00;99.90
27667;DHT22;15074;50.940;5.282;2022-07-31T04:33:07;18.10;99.90
27667;DHT22;15074;50.940;5.282;2022-07-31T04:35:34;18.30;99.90
27667;DHT22;15074;50.940;5.282;2022-07-31T04:37:59;18.30;99.90
27667;DHT22;15074;50.940;5.282;2022-07-31T04:40:25;18.30;99.90
27667;DHT22;15074;50.940;5.282;2022-07-31T04:42:52;18.40;99.90
27667;DHT22;15074;50.940;5.282;2022-07-31T04:45:18;18.40;99.90
27667;DHT22;15074;50.940;5.282;2022-07-31T04:47:43;18.40;99.90
27667;DHT22;15074;50.940;5.282;2022-07-31T04:50:09;18.50;99.90
27667;DHT22;15074;50.940;5.282;2022-07-31T04:52:35;18.50;99.90
27667;DHT22;15074;50.940;5.282;2022-07-31T04:55:01;18.50;99.90
27667;DHT22;15074;50.940;5.282;2022-07-31T04:57:26;18.40;99.90
27667;DHT22;15074;50.940;5.282;2022-07-31T04:59:52;18.30;99.90
27667;DHT22;15074;50.940;5.282;2022-07-31T05:02:18;18.30;99.90
27667;DHT22;15074;50.940;5.282;2022-07-31T05:04:43;18.30;99.90
27667;DHT22;15074;50.940;5.282;2022-07-31T05:07:09;18.50;99.90
27667;DHT22;15074;50.940;5.282;2022-07-31T05:09:34;18.50;99.90
27667;DHT22;15074;50.940;5.282;2022-07-31T05:12:01;18.50;99.90
27667;DHT22;15074;50.940;5.282;2022-07-31T05:14:27;18.60;99.90
27667;DHT22;15074;50.940;5.282;2022-07-31T05:16:53;18.60;99.90
27667;DHT22;15074;50.940;5.282;2022-07-31T05:19:18;18.60;99.90
27667;DHT22;15074;50.940;5.282;2022-07-31T05:21:45;18.70;99.90
27667;DHT22;15074;50.940;5.282;2022-07-31T05:24:11;18.70;99.90
27667;DHT22;15074;50.940;5.282;2022-07-31T05:26:37;18.90;99.90
27667;DHT22;15074;50.940;5.282;2022-07-31T05:29:03;18.80;99.90
27667;DHT22;15074;50.940;5.282;2022-07-31T05:31:29;18.80;99.90
27667;DHT22;15074;50.940;5.282;2022-07-31T05:33:55;18.90;99.90
27667;DHT22;15074;50.940;5.282;2022-07-31T05:36:24;18.80;99.90
27667;DHT22;15074;50.940;5.282;2022-07-31T05:38:49;19.00;99.90
27667;DHT22;15074;50.940;5.282;2022-07-31T05:41:15;19.00;99.90
27667;DHT22;15074;50.940;5.282;2022-07-31T05:43:41;19.00;99.90
27667;DHT22;15074;50.940;5.282;2022-07-31T05:46:07;18.90;99.90
27667;DHT22;15074;50.940;5.282;2022-07-31T05:48:33;19.00;99.90
27667;DHT22;15074;50.940;5.282;2022-07-31T05:50:58;18.90;99.90
27667;DHT22;15074;50.940;5.282;2022-07-31T05:53:24;18.80;99.90
27667;DHT22;15074;50.940;5.282;2022-07-31T05:55:50;18.80;99.90
27667;DHT22;15074;50.940;5.282;2022-07-31T05:58:18;18.70;99.90
27667;DHT22;15074;50.940;5.282;2022-07-31T06:00:46;18.80;99.90
27667;DHT22;15074;50.940;5.282;2022-07-31T06:03:12;18.90;99.90
27667;DHT22;15074;50.940;5.282;2022-07-31T06:05:41;18.90;99.90
27667;DHT22;15074;50.940;5.282;2022-07-31T06:08:07;18.90;99.90
27667;DHT22;15074;50.940;5.282;2022-07-31T06:10:34;19.00;99.90
27667;DHT22;15074;50.940;5.282;2022-07-31T06:13:00;19.40;99.90
27667;DHT22;15074;50.940;5.282;2022-07-31T06:15:25;19.60;99.90
27667;DHT22;15074;50.940;5.282;2022-07-31T06:17:51;19.70;99.90
27667;DHT22;15074;50.940;5.282;2022-07-31T06:20:16;19.70;99.90
27667;DHT22;15074;50.940;5.282;2022-07-31T06:22:42;19.80;99.90
27667;DHT22;15074;50.940;5.282;2022-07-31T06:25:09;19.90;99.90
27667;DHT22;15074;50.940;5.282;2022-07-31T06:27:35;20.00;99.90
27667;DHT22;15074;50.940;5.282;2022-07-31T06:30:05;20.10;99.90
27667;DHT22;15074;50.940;5.282;2022-07-31T06:32:31;20.20;99.90
27667;DHT22;15074;50.940;5.282;2022-07-31T06:34:57;20.40;99.90
27667;DHT22;15074;50.940;5.282;2022-07-31T06:37:23;20.60;99.90
27667;DHT22;15074;50.940;5.282;2022-07-31T06:39:50;20.70;99.90
27667;DHT22;15074;50.940;5.282;2022-07-31T06:42:19;20.70;99.90
27667;DHT22;15074;50.940;5.282;2022-07-31T06:44:45;20.80;99.90
27667;DHT22;15074;50.940;5.282;2022-07-31T06:47:11;21.00;99.90
27667;DHT22;15074;50.940;5.282;2022-07-31T06:49:36;21.30;99.90
27667;DHT22;15074;50.940;5.282;2022-07-31T06:52:02;21.50;99.90
27667;DHT22;15074;50.940;5.282;2022-07-31T06:54:28;21.40;99.90
27667;DHT22;15074;50.940;5.282;2022-07-31T06:56:53;21.30;99.90
27667;DHT22;15074;50.940;5.282;2022-07-31T06:59:19;21.20;99.90
27667;DHT22;15074;50.940;5.282;2022-07-31T07:01:44;20.90;99.90
27667;DHT22;15074;50.940;5.282;2022-07-31T07:04:10;20.80;99.90
27667;DHT22;15074;50.940;5.282;2022-07-31T07:06:35;21.10;99.90
27667;DHT22;15074;50.940;5.282;2022-07-31T07:09:01;21.10;99.90
27667;DHT22;15074;50.940;5.282;2022-07-31T07:11:27;21.30;99.90
27667;DHT22;15074;50.940;5.282;2022-07-31T07:13:52;21.30;99.90
27667;DHT22;15074;50.940;5.282;2022-07-31T07:16:18;21.20;99.90
27667;DHT22;15074;50.940;5.282;2022-07-31T07:18:44;21.10;99.90
27667;DHT22;15074;50.940;5.282;2022-07-31T07:21:10;21.00;99.90
27667;DHT22;15074;50.940;5.282;2022-07-31T07:23:36;21.10;99.90
27667;DHT22;15074;50.940;5.282;2022-07-31T07:26:02;21.40;99.90
27667;DHT22;15074;50.940;5.282;2022-07-31T07:28:28;21.60;99.90
27667;DHT22;15074;50.940;5.282;2022-07-31T07:30:54;21.90;99.90
27667;DHT22;15074;50.940;5.282;2022-07-31T07:33:20;22.00;99.90
27667;DHT22;15074;50.940;5.282;2022-07-31T07:35:45;22.30;99.90
27667;DHT22;15074;50.940;5.282;2022-07-31T07:38:11;22.60;99.90
27667;DHT22;15074;50.940;5.282;2022-07-31T07:40:37;22.70;99.90
27667;DHT22;15074;50.940;5.282;2022-07-31T07:43:03;22.70;99.90
27667;DHT22;15074;50.940;5.282;2022-07-31T07:45:28;22.80;99.90
27667;DHT22;15074;50.940;5.282;2022-07-31T07:47:54;23.60;99.90
27667;DHT22;15074;50.940;5.282;2022-07-31T07:50:19;24.60;99.90
27667;DHT22;15074;50.940;5.282;2022-07-31T07:52:45;25.20;99.90
27667;DHT22;15074;50.940;5.282;2022-07-31T07:55:11;25.40;99.90
27667;DHT22;15074;50.940;5.282;2022-07-31T07:57:37;24.80;99.90
27667;DHT22;15074;50.940;5.282;2022-07-31T08:00:08;24.20;99.90
27667;DHT22;15074;50.940;5.282;2022-07-31T08:02:35;24.00;99.90
27667;DHT22;15074;50.940;5.282;2022-07-31T08:05:00;24.00;99.90
27667;DHT22;15074;50.940;5.282;2022-07-31T08:07:30;24.20;99.90
27667;DHT22;15074;50.940;5.282;2022-07-31T08:09:57;23.90;99.90
27667;DHT22;15074;50.940;5.282;2022-07-31T08:12:24;24.20;99.90
27667;DHT22;15074;50.940;5.282;2022-07-31T08:14:49;24.30;99.90
27667;DHT22;15074;50.940;5.282;2022-07-31T08:17:15;24.30;99.90
27667;DHT22;15074;50.940;5.282;2022-07-31T08:19:41;24.20;99.90
27667;DHT22;15074;50.940;5.282;2022-07-31T08:22:07;24.70;99.90
27667;DHT22;15074;50.940;5.282;2022-07-31T08:24:33;25.60;99.90
27667;DHT22;15074;50.940;5.282;2022-07-31T08:26:59;26.00;99.90
27667;DHT22;15074;50.940;5.282;2022-07-31T08:29:44;25.80;99.90
27667;DHT22;15074;50.940;5.282;2022-07-31T08:32:10;25.60;99.90
27667;DHT22;15074;50.940;5.282;2022-07-31T08:34:36;25.00;99.90
27667;DHT22;15074;50.940;5.282;2022-07-31T08:37:02;24.70;99.90
27667;DHT22;15074;50.940;5.282;2022-07-31T08:39:28;25.00;99.90
27667;DHT22;15074;50.940;5.282;2022-07-31T08:41:54;26.70;99.90
27667;DHT22;15074;50.940;5.282;2022-07-31T08:44:20;28.50;99.90
27667;DHT22;15074;50.940;5.282;2022-07-31T08:46:46;30.50;99.90
27667;DHT22;15074;50.940;5.282;2022-07-31T08:49:14;31.80;99.90
27667;DHT22;15074;50.940;5.282;2022-07-31T08:51:43;30.50;99.90
27667;DHT22;15074;50.940;5.282;2022-07-31T08:54:10;30.10;99.90
27667;DHT22;15074;50.940;5.282;2022-07-31T08:56:36;28.70;99.90
27667;DHT22;15074;50.940;5.282;2022-07-31T08:59:04;27.90;99.90
27667;DHT22;15074;50.940;5.282;2022-07-31T09:01:32;27.60;99.90
27667;DHT22;15074;50.940;5.282;2022-07-31T09:03:59;27.40;99.90
27667;DHT22;15074;50.940;5.282;2022-07-31T09:06:25;27.40;99.90
27667;DHT22;15074;50.940;5.282;2022-07-31T09:08:51;27.70;99.90
27667;DHT22;15074;50.940;5.282;2022-07-31T09:11:16;27.80;99.90
27667;DHT22;15074;50.940;5.282;2022-07-31T09:16:21;27.10;99.90
27667;DHT22;15074;50.940;5.282;2022-07-31T09:19:03;26.60;99.90
27667;DHT22;15074;50.940;5.282;2022-07-31T09:21:43;27.50;99.90
27667;DHT22;15074;50.940;5.282;2022-07-31T09:24:13;27.40;99.90
27667;DHT22;15074;50.940;5.282;2022-07-31T09:26:59;28.40;99.90
27667;DHT22;15074;50.940;5.282;2022-07-31T09:29:42;28.70;99.90
27667;DHT22;15074;50.940;5.282;2022-07-31T09:32:12;28.60;99.90
27667;DHT22;15074;50.940;5.282;2022-07-31T09:34:39;28.50;99.90
27667;DHT22;15074;50.940;5.282;2022-07-31T09:37:13;29.10;99.90
27667;DHT22;15074;50.940;5.282;2022-07-31T09:39:40;30.10;99.90
27667;DHT22;15074;50.940;5.282;2022-07-31T09:42:07;30.50;99.90
27667;DHT22;15074;50.940;5.282;2022-07-31T09:44:44;30.40;99.90
27667;DHT22;15074;50.940;5.282;2022-07-31T09:47:25;30.10;99.90
27667;DHT22;15074;50.940;5.282;2022-07-31T09:49:57;29.90;99.90
27667;DHT22;15074;50.940;5.282;2022-07-31T09:52:24;30.60;99.90
27667;DHT22;15074;50.940;5.282;2022-07-31T09:55:10;31.20;99.90
27667;DHT22;15074;50.940;5.282;2022-07-31T09:57:38;30.50;99.90
27667;DHT22;15074;50.940;5.282;2022-07-31T10:00:08;29.90;99.90
27667;DHT22;15074;50.940;5.282;2022-07-31T10:02:37;29.80;99.90
27667;DHT22;15074;50.940;5.282;2022-07-31T10:05:04;29.80;99.90
27667;DHT22;15074;50.940;5.282;2022-07-31T10:07:30;29.60;99.90
27667;DHT22;15074;50.940;5.282;2022-07-31T10:10:00;29.90;99.90
27667;DHT22;15074;50.940;5.282;2022-07-31T10:12:28;30.40;99.90
27667;DHT22;15074;50.940;5.282;2022-07-31T10:14:57;31.30;99.90
27667;DHT22;15074;50.940;5.282;2022-07-31T10:17:29;32.00;99.90
27667;DHT22;15074;50.940;5.282;2022-07-31T10:19:57;32.80;99.90
27667;DHT22;15074;50.940;5.282;2022-07-31T10:22:26;32.70;99.90
27667;DHT22;15074;50.940;5.282;2022-07-31T10:24:56;32.20;99.90
27667;DHT22;15074;50.940;5.282;2022-07-31T10:27:26;31.10;99.90
27667;DHT22;15074;50.940;5.282;2022-07-31T10:29:52;30.70;99.90
27667;DHT22;15074;50.940;5.282;2022-07-31T10:32:18;30.00;99.90
27667;DHT22;15074;50.940;5.282;2022-07-31T10:34:44;29.80;99.90
27667;DHT22;15074;50.940;5.282;2022-07-31T10:37:15;29.80;99.90
27667;DHT22;15074;50.940;5.282;2022-07-31T10:45:16;29.10;99.90
27667;DHT22;15074;50.940;5.282;2022-07-31T10:47:59;30.10;99.90
27667;DHT22;15074;50.940;5.282;2022-07-31T10:50:27;30.30;99.90
27667;DHT22;15074;50.940;5.282;2022-07-31T10:53:05;30.70;99.90
27667;DHT22;15074;50.940;5.282;2022-07-31T10:55:30;31.30;99.90
27667;DHT22;15074;50.940;5.282;2022-07-31T10:58:06;31.40;99.90
27667;DHT22;15074;50.940;5.282;2022-07-31T11:00:32;32.10;99.90
27667;DHT22;15074;50.940;5.282;2022-07-31T11:02:58;32.30;99.60
27667;DHT22;15074;50.940;5.282;2022-07-31T11:05:24;31.20;99.90
27667;DHT22;15074;50.940;5.282;2022-07-31T11:08:01;31.60;99.90
27667;DHT22;15074;50.940;5.282;2022-07-31T11:10:28;31.90;99.90
27667;DHT22;15074;50.940;5.282;2022-07-31T11:13:03;31.10;99.90
27667;DHT22;15074;50.940;5.282;2022-07-31T11:15:32;30.70;99.90
27667;DHT22;15074;50.940;5.282;2022-07-31T11:18:11;30.50;99.90
27667;DHT22;15074;50.940;5.282;2022-07-31T11:20:40;31.10;99.90
27667;DHT22;15074;50.940;5.282;2022-07-31T11:23:16;31.70;99.90
27667;DHT22;15074;50.940;5.282;2022-07-31T11:25:44;31.30;99.90
27667;DHT22;15074;50.940;5.282;2022-07-31T11:28:16;31.30;99.90
27667;DHT22;15074;50.940;5.282;2022-07-31T11:33:40;30.90;99.90
27667;DHT22;15074;50.940;5.282;2022-07-31T11:36:26;30.70;99.90
27667;DHT22;15074;50.940;5.282;2022-07-31T11:38:54;30.20;99.90
27667;DHT22;15074;50.940;5.282;2022-07-31T11:41:28;30.10;99.90
27667;DHT22;15074;50.940;5.282;2022-07-31T11:43:54;30.60;99.90
27667;DHT22;15074;50.940;5.282;2022-07-31T11:46:32;30.80;99.90
27667;DHT22;15074;50.940;5.282;2022-07-31T11:48:58;30.60;99.90
27667;DHT22;15074;50.940;5.282;2022-07-31T11:51:25;29.80;99.90
27667;DHT22;15074;50.940;5.282;2022-07-31T11:53:52;29.30;99.90
27667;DHT22;15074;50.940;5.282;2022-07-31T11:56:20;29.10;99.90
27667;DHT22;15074;50.940;5.282;2022-07-31T11:58:51;29.10;99.90
27667;DHT22;15074;50.940;5.282;2022-07-31T12:01:18;29.20;99.90
27667;DHT22;15074;50.940;5.282;2022-07-31T12:03:48;29.20;99.90
27667;DHT22;15074;50.940;5.282;2022-07-31T12:06:17;29.20;99.90
27667;DHT22;15074;50.940;5.282;2022-07-31T12:08:46;28.80;99.90
27667;DHT22;15074;50.940;5.282;2022-07-31T12:11:13;28.40;99.90
27667;DHT22;15074;50.940;5.282;2022-07-31T12:13:39;28.90;99.90
27667;DHT22;15074;50.940;5.282;2022-07-31T12:16:09;29.10;99.90
27667;DHT22;15074;50.940;5.282;2022-07-31T12:18:55;28.90;99.90
27667;DHT22;15074;50.940;5.282;2022-07-31T12:21:34;28.80;99.90
27667;DHT22;15074;50.940;5.282;2022-07-31T12:24:00;28.70;99.90
27667;DHT22;15074;50.940;5.282;2022-07-31T12:26:29;28.50;99.90
27667;DHT22;15074;50.940;5.282;2022-07-31T12:29:07;28.70;99.90
27667;DHT22;15074;50.940;5.282;2022-07-31T12:31:51;28.70;99.90
27667;DHT22;15074;50.940;5.282;2022-07-31T12:34:31;28.80;99.90
27667;DHT22;15074;50.940;5.282;2022-07-31T12:37:13;28.70;99.90
27667;DHT22;15074;50.940;5.282;2022-07-31T12:42:22;28.10;99.90
27667;DHT22;15074;50.940;5.282;2022-07-31T12:44:52;27.80;99.90
27667;DHT22;15074;50.940;5.282;2022-07-31T12:47:26;27.90;99.90
27667;DHT22;15074;50.940;5.282;2022-07-31T12:49:53;28.00;99.90
27667;DHT22;15074;50.940;5.282;2022-07-31T12:52:19;28.70;99.90
27667;DHT22;15074;50.940;5.282;2022-07-31T12:54:44;28.90;99.90
27667;DHT22;15074;50.940;5.282;2022-07-31T12:57:11;29.00;99.90
27667;DHT22;15074;50.940;5.282;2022-07-31T12:59:37;29.00;99.90
27667;DHT22;15074;50.940;5.282;2022-07-31T13:02:04;29.30;99.90
27667;DHT22;15074;50.940;5.282;2022-07-31T13:04:31;30.00;99.90
27667;DHT22;15074;50.940;5.282;2022-07-31T13:06:57;30.40;99.90
27667;DHT22;15074;50.940;5.282;2022-07-31T13:09:23;31.20;99.90
27667;DHT22;15074;50.940;5.282;2022-07-31T13:11:49;31.20;99.90
27667;DHT22;15074;50.940;5.282;2022-07-31T13:14:18;31.50;99.90
27667;DHT22;15074;50.940;5.282;2022-07-31T13:16:45;31.00;99.90
27667;DHT22;15074;50.940;5.282;2022-07-31T13:19:11;31.20;99.90
27667;DHT22;15074;50.940;5.282;2022-07-31T13:21:38;30.50;99.90
27667;DHT22;15074;50.940;5.282;2022-07-31T13:24:04;30.10;99.90
27667;DHT22;15074;50.940;5.282;2022-07-31T13:26:37;29.90;99.90
27667;DHT22;15074;50.940;5.282;2022-07-31T13:29:05;30.10;99.90
27667;DHT22;15074;50.940;5.282;2022-07-31T13:31:31;30.00;99.90
27667;DHT22;15074;50.940;5.282;2022-07-31T13:33:58;29.90;99.90
27667;DHT22;15074;50.940;5.282;2022-07-31T13:36:24;29.60;99.90
27667;DHT22;15074;50.940;5.282;2022-07-31T13:38:50;29.50;99.90
27667;DHT22;15074;50.940;5.282;2022-07-31T13:41:16;29.20;99.90
27667;DHT22;15074;50.940;5.282;2022-07-31T13:43:57;28.80;99.90
27667;DHT22;15074;50.940;5.282;2022-07-31T13:46:23;29.20;99.90
27667;DHT22;15074;50.940;5.282;2022-07-31T13:48:51;29.30;99.90
27667;DHT22;15074;50.940;5.282;2022-07-31T13:51:17;29.30;99.90
27667;DHT22;15074;50.940;5.282;2022-07-31T13:53:43;29.00;99.90
27667;DHT22;15074;50.940;5.282;2022-07-31T13:56:08;28.50;99.90
27667;DHT22;15074;50.940;5.282;2022-07-31T13:58:35;27.90;99.90
27667;DHT22;15074;50.940;5.282;2022-07-31T14:01:02;27.80;99.90
27667;DHT22;15074;50.940;5.282;2022-07-31T14:03:27;28.10;99.90
27667;DHT22;15074;50.940;5.282;2022-07-31T14:05:53;28.00;99.90
27667;DHT22;15074;50.940;5.282;2022-07-31T14:08:20;28.00;99.90
27667;DHT22;15074;50.940;5.282;2022-07-31T14:10:47;28.30;99.90
27667;DHT22;15074;50.940;5.282;2022-07-31T14:13:12;28.50;99.90
27667;DHT22;15074;50.940;5.282;2022-07-31T14:15:38;28.50;99.90
27667;DHT22;15074;50.940;5.282;2022-07-31T14:18:04;28.60;99.90
27667;DHT22;15074;50.940;5.282;2022-07-31T14:20:30;28.80;99.90
27667;DHT22;15074;50.940;5.282;2022-07-31T14:23:00;29.00;99.90
27667;DHT22;15074;50.940;5.282;2022-07-31T14:25:34;28.70;99.90
27667;DHT22;15074;50.940;5.282;2022-07-31T14:28:00;28.80;99.90
27667;DHT22;15074;50.940;5.282;2022-07-31T14:30:26;28.80;99.90
27667;DHT22;15074;50.940;5.282;2022-07-31T14:32:53;28.40;99.90
27667;DHT22;15074;50.940;5.282;2022-07-31T14:35:19;28.20;99.90
27667;DHT22;15074;50.940;5.282;2022-07-31T14:37:45;28.10;99.90
27667;DHT22;15074;50.940;5.282;2022-07-31T14:40:13;28.00;99.90
27667;DHT22;15074;50.940;5.282;2022-07-31T14:42:39;27.70;99.90
27667;DHT22;15074;50.940;5.282;2022-07-31T14:45:06;27.50;99.90
27667;DHT22;15074;50.940;5.282;2022-07-31T14:47:33;27.60;99.90
27667;DHT22;15074;50.940;5.282;2022-07-31T14:50:00;27.50;99.90
27667;DHT22;15074;50.940;5.282;2022-07-31T14:52:27;27.70;99.90
27667;DHT22;15074;50.940;5.282;2022-07-31T14:54:53;27.70;99.90
27667;DHT22;15074;50.940;5.282;2022-07-31T14:57:19;27.50;99.90
27667;DHT22;15074;50.940;5.282;2022-07-31T14:59:45;27.30;99.90
27667;DHT22;15074;50.940;5.282;2022-07-31T15:02:11;27.30;99.90
27667;DHT22;15074;50.940;5.282;2022-07-31T15:04:37;27.10;99.90
27667;DHT22;15074;50.940;5.282;2022-07-31T15:07:03;27.20;99.90
27667;DHT22;15074;50.940;5.282;2022-07-31T15:09:30;27.30;99.90
27667;DHT22;15074;50.940;5.282;2022-07-31T15:11:59;27.50;99.90
27667;DHT22;15074;50.940;5.282;2022-07-31T15:14:25;27.60;99.90
27667;DHT22;15074;50.940;5.282;2022-07-31T15:16:51;27.50;99.90
27667;DHT22;15074;50.940;5.282;2022-07-31T15:19:16;27.60;99.90
27667;DHT22;15074;50.940;5.282;2022-07-31T15:21:45;27.50;99.90
27667;DHT22;15074;50.940;5.282;2022-07-31T15:24:11;27.50;99.90
27667;DHT22;15074;50.940;5.282;2022-07-31T15:26:37;27.60;99.90
27667;DHT22;15074;50.940;5.282;2022-07-31T15:29:02;28.00;99.90
27667;DHT22;15074;50.940;5.282;2022-07-31T15:31:28;27.70;99.90
27667;DHT22;15074;50.940;5.282;2022-07-31T15:33:54;27.30;99.90
27667;DHT22;15074;50.940;5.282;2022-07-31T15:36:25;27.20;99.90
27667;DHT22;15074;50.940;5.282;2022-07-31T15:38:51;27.30;99.90
27667;DHT22;15074;50.940;5.282;2022-07-31T15:41:17;27.30;99.90
27667;DHT22;15074;50.940;5.282;2022-07-31T15:43:42;27.20;99.90
27667;DHT22;15074;50.940;5.282;2022-07-31T15:46:09;27.00;99.90
27667;DHT22;15074;50.940;5.282;2022-07-31T15:48:36;27.00;99.90
27667;DHT22;15074;50.940;5.282;2022-07-31T15:51:03;27.30;99.90